createdAt,value
2018-04-14T00:01:04.068Z,80.69
2018-04-14T00:03:37.777Z,80.70
2018-04-14T00:06:11.401Z,80.72
2018-04-14T00:08:45.220Z,80.59
2018-04-14T00:11:18.877Z,80.47
2018-04-14T00:13:52.629Z,80.34
2018-04-14T00:16:26.603Z,80.33
2018-04-14T00:19:00.229Z,80.51
2018-04-14T00:21:33.938Z,80.30
2018-04-14T00:24:07.695Z,80.48
2018-04-14T00:26:41.395Z,80.75
2018-04-14T00:29:14.969Z,80.90
2018-04-14T00:31:48.625Z,80.90
2018-04-14T00:34:22.183Z,81.14
2018-04-14T00:36:55.829Z,80.84
2018-04-14T00:39:29.570Z,80.54
2018-04-14T00:42:03.295Z,80.77
2018-04-14T00:44:36.892Z,81.28
2018-04-14T00:47:10.453Z,81.24
2018-04-14T00:49:44.009Z,81.14
2018-04-14T00:52:17.810Z,81.07
2018-04-14T00:54:51.541Z,81.26
2018-04-14T00:57:25.560Z,81.16
2018-04-14T00:59:59.216Z,81.13
2018-04-14T01:02:32.941Z,80.55
2018-04-14T01:05:06.994Z,79.99
2018-04-14T01:07:40.671Z,79.72
2018-04-14T01:10:14.452Z,79.42
2018-04-14T01:12:48.153Z,79.45
2018-04-14T01:15:21.945Z,79.86
2018-04-14T01:17:55.709Z,79.99
2018-04-14T01:20:29.482Z,80.21
2018-04-14T01:23:03.316Z,80.25
2018-04-14T01:25:36.932Z,80.56
2018-04-14T01:28:10.685Z,81.12
2018-04-14T01:30:44.241Z,81.30
2018-04-14T01:33:17.834Z,81.27
2018-04-14T01:35:51.590Z,81.48
2018-04-14T01:38:25.348Z,81.63
2018-04-14T01:40:59.196Z,81.87
2018-04-14T01:43:32.745Z,82.28
2018-04-14T01:46:06.489Z,82.73
2018-04-14T01:48:40.517Z,82.78
2018-04-14T01:51:14.344Z,82.71
2018-04-14T01:53:48.060Z,82.88
2018-04-14T01:56:21.749Z,82.63
2018-04-14T01:58:55.354Z,82.66
2018-04-14T02:01:29.279Z,82.78
2018-04-14T02:04:03.064Z,82.67
2018-04-14T02:06:36.851Z,82.95
2018-04-14T02:09:10.561Z,83.27
2018-04-14T02:11:44.342Z,83.14
2018-04-14T02:14:18.247Z,83.31
2018-04-14T02:16:51.877Z,83.12
2018-04-14T02:19:25.640Z,83.33
2018-04-14T02:21:59.329Z,83.56
2018-04-14T02:24:33.051Z,83.47
2018-04-14T02:27:07.061Z,83.57
2018-04-14T02:29:40.675Z,83.18
2018-04-14T02:32:14.404Z,82.86
2018-04-14T02:34:47.972Z,83.17
2018-04-14T02:37:21.692Z,83.38
2018-04-14T02:39:55.352Z,83.89
2018-04-14T02:42:29.056Z,83.95
2018-04-14T02:45:02.777Z,84.10
2018-04-14T02:47:36.528Z,84.15
2018-04-14T02:50:10.265Z,84.11
2018-04-14T02:52:43.913Z,84.74
2018-04-14T02:55:17.794Z,84.92
2018-04-14T02:57:51.587Z,85.20
2018-04-14T03:00:25.355Z,85.50
2018-04-14T03:02:58.994Z,85.47
2018-04-14T03:05:32.689Z,85.35
2018-04-14T03:08:06.499Z,85.00
2018-04-14T03:10:40.463Z,85.19
2018-04-14T03:13:14.558Z,85.07
2018-04-14T03:15:48.228Z,84.41
2018-04-14T03:18:21.940Z,83.65
2018-04-14T03:20:55.649Z,83.34
2018-04-14T03:23:29.625Z,82.51
2018-04-14T03:26:03.395Z,82.61
2018-04-14T03:28:36.972Z,82.59
2018-04-14T03:31:10.854Z,81.94
2018-04-14T03:33:44.657Z,82.39
2018-04-14T03:36:18.300Z,82.31
2018-04-14T03:38:52.077Z,82.37
2018-04-14T03:41:25.792Z,82.24
2018-04-14T03:43:59.382Z,82.96
2018-04-14T03:46:33.155Z,83.02
2018-04-14T03:49:06.712Z,83.13
2018-04-14T03:51:40.417Z,83.31
2018-04-14T03:54:14.032Z,83.46
2018-04-14T03:56:47.796Z,83.18
2018-04-14T03:59:21.385Z,83.07
2018-04-14T04:01:54.909Z,82.83
2018-04-14T04:04:28.529Z,82.74
2018-04-14T04:07:02.094Z,82.73
2018-04-14T04:09:35.952Z,82.94
2018-04-14T04:12:09.546Z,82.58
2018-04-14T04:14:43.243Z,82.13
2018-04-14T04:17:16.860Z,81.41
2018-04-14T04:20:03.313Z,80.97
2018-04-14T04:22:48.921Z,80.20
2018-04-14T04:25:24.436Z,79.64
2018-04-14T04:27:58.101Z,79.65
2018-04-14T04:30:31.803Z,79.78
2018-04-14T04:33:05.525Z,79.90
2018-04-14T04:35:39.242Z,80.07
2018-04-14T04:38:12.952Z,79.95
2018-04-14T04:40:46.668Z,80.09
2018-04-14T04:43:20.317Z,80.45
2018-04-14T04:45:54.114Z,80.18
2018-04-14T04:48:27.821Z,79.85
2018-04-14T04:51:01.464Z,79.29
2018-04-14T04:53:35.051Z,79.15
2018-04-14T04:56:08.781Z,79.63
2018-04-14T04:58:42.648Z,79.29
2018-04-14T05:01:16.457Z,79.22
2018-04-14T05:03:50.189Z,79.28
2018-04-14T05:06:23.873Z,79.31
2018-04-14T05:08:57.647Z,79.45
2018-04-14T05:11:31.460Z,79.13
2018-04-14T05:14:05.227Z,79.11
2018-04-14T05:16:38.797Z,79.17
2018-04-14T05:19:12.552Z,79.45
2018-04-14T05:21:46.269Z,79.26
2018-04-14T05:24:20.012Z,79.10
2018-04-14T05:26:53.697Z,79.08
2018-04-14T05:29:27.316Z,79.49
2018-04-14T05:32:00.965Z,79.70
2018-04-14T05:34:34.745Z,79.78
2018-04-14T05:37:08.434Z,79.38
2018-04-14T05:39:42.133Z,78.51
2018-04-14T05:42:15.883Z,78.41
2018-04-14T05:44:49.642Z,78.25
2018-04-14T05:47:23.385Z,78.57
2018-04-14T05:49:57.022Z,78.29
2018-04-14T05:52:30.605Z,77.84
2018-04-14T05:55:04.447Z,78.10
2018-04-14T05:57:38.229Z,77.46
2018-04-14T06:00:11.846Z,77.39
2018-04-14T06:02:45.379Z,77.00
2018-04-14T06:05:19.197Z,77.38
2018-04-14T06:07:52.776Z,78.41
2018-04-14T06:10:26.325Z,78.43
2018-04-14T06:12:59.911Z,76.73
2018-04-14T06:15:33.472Z,77.03
2018-04-14T06:18:07.132Z,77.02
2018-04-14T06:20:40.756Z,75.68
2018-04-14T06:23:14.344Z,74.62
2018-04-14T06:25:47.863Z,75.33
2018-04-14T06:28:21.386Z,76.05
2018-04-14T06:30:55.158Z,73.81
2018-04-14T06:33:28.822Z,72.25
2018-04-14T06:36:02.604Z,71.54
2018-04-14T06:38:36.276Z,72.97
2018-04-14T06:41:09.812Z,71.72
2018-04-14T06:43:43.600Z,73.71
2018-04-14T06:46:17.104Z,74.87
2018-04-14T06:48:50.878Z,74.24
2018-04-14T06:51:24.644Z,74.85
2018-04-14T06:53:58.421Z,75.10
2018-04-14T06:56:32.260Z,74.77
2018-04-14T06:59:06.026Z,74.73
2018-04-14T07:01:39.811Z,74.27
2018-04-14T07:04:13.397Z,72.64
2018-04-14T07:06:46.962Z,70.97
2018-04-14T07:09:20.651Z,72.06
2018-04-14T07:11:54.300Z,71.83
2018-04-14T07:14:28.052Z,70.84
2018-04-14T07:17:01.972Z,69.08
2018-04-14T07:19:35.678Z,65.68
2018-04-14T07:22:09.477Z,64.33
2018-04-14T07:24:43.314Z,63.28
2018-04-14T07:27:17.053Z,63.21
2018-04-14T07:29:50.888Z,62.76
2018-04-14T07:32:24.460Z,61.12
2018-04-14T07:34:58.235Z,58.61
2018-04-14T07:37:31.865Z,59.27
2018-04-14T07:40:05.549Z,59.79
2018-04-14T07:42:39.210Z,61.25
2018-04-14T07:45:13.040Z,63.71
2018-04-14T07:47:46.703Z,64.56
2018-04-14T07:50:20.411Z,63.95
2018-04-14T07:52:54.057Z,61.89
2018-04-14T07:55:27.708Z,61.71
2018-04-14T07:58:01.493Z,61.63
2018-04-14T08:00:35.218Z,60.65
2018-04-14T08:03:08.987Z,58.71
2018-04-14T08:05:42.631Z,60.26
2018-04-14T08:08:16.465Z,61.55
2018-04-14T08:10:50.104Z,60.98
2018-04-14T08:13:23.751Z,62.32
2018-04-14T08:15:57.396Z,64.54
2018-04-14T08:18:31.152Z,67.49
2018-04-14T08:21:04.747Z,66.60
2018-04-14T08:23:38.305Z,65.30
2018-04-14T08:26:11.949Z,62.70
2018-04-14T08:28:45.677Z,60.31
2018-04-14T08:31:19.176Z,58.46
2018-04-14T08:33:52.869Z,59.26
2018-04-14T08:36:26.586Z,59.47
2018-04-14T08:39:00.423Z,59.05
2018-04-14T08:41:34.216Z,62.03
2018-04-14T08:44:07.741Z,56.14
2018-04-14T08:46:41.440Z,54.97
2018-04-14T08:49:15.114Z,56.39
2018-04-14T08:51:48.628Z,52.04
2018-04-14T08:54:22.396Z,55.80
2018-04-14T08:56:56.135Z,57.44
2018-04-14T08:59:29.856Z,56.40
2018-04-14T09:02:03.502Z,54.49
2018-04-14T09:04:36.990Z,53.80
2018-04-14T09:07:10.556Z,52.81
2018-04-14T09:09:44.419Z,57.20
2018-04-14T09:12:18.073Z,58.66
2018-04-14T09:14:51.751Z,59.70
2018-04-14T09:17:25.304Z,59.70
2018-04-14T09:19:58.877Z,60.20
2018-04-14T09:22:32.397Z,60.12
2018-04-14T09:25:05.988Z,59.94
2018-04-14T09:27:39.734Z,59.58
2018-04-14T09:30:13.483Z,59.01
2018-04-14T09:32:47.192Z,58.00
2018-04-14T09:35:20.819Z,56.45
2018-04-14T09:37:54.492Z,56.05
2018-04-14T09:40:28.143Z,55.47
2018-04-14T09:43:01.677Z,54.78
2018-04-14T09:45:35.264Z,56.61
2018-04-14T09:48:08.807Z,56.88
2018-04-14T09:50:42.348Z,57.55
2018-04-14T09:53:15.883Z,59.19
2018-04-14T09:55:49.459Z,59.91
2018-04-14T09:58:23.000Z,58.58
2018-04-14T10:01:01.777Z,58.73
2018-04-14T10:03:35.465Z,57.84
2018-04-14T10:06:09.166Z,58.25
2018-04-14T10:08:43.610Z,58.80
2018-04-14T10:11:17.330Z,58.59
2018-04-14T10:13:50.987Z,58.96
2018-04-14T10:16:24.945Z,57.69
2018-04-14T10:18:58.774Z,55.26
2018-04-14T10:21:32.609Z,57.67
2018-04-14T10:24:06.261Z,58.52
2018-04-14T10:26:40.116Z,56.45
2018-04-14T10:29:13.799Z,56.47
2018-04-14T10:31:47.557Z,53.72
2018-04-14T10:34:21.158Z,51.52
2018-04-14T10:36:55.209Z,50.41
2018-04-14T10:39:29.024Z,47.83
2018-04-14T10:42:02.627Z,45.02
2018-04-14T10:44:36.362Z,41.60
2018-04-14T10:47:10.105Z,44.70
2018-04-14T10:49:43.699Z,47.54
2018-04-14T10:52:17.343Z,48.33
2018-04-14T10:54:50.970Z,47.78
2018-04-14T10:57:24.762Z,47.05
2018-04-14T10:59:58.364Z,45.99
2018-04-14T11:02:31.939Z,45.87
2018-04-14T11:05:05.537Z,45.70
2018-04-14T11:07:39.061Z,44.00
2018-04-14T11:10:12.597Z,43.05
2018-04-14T11:12:46.199Z,42.65
2018-04-14T11:15:19.963Z,42.21
2018-04-14T11:17:53.676Z,45.41
2018-04-14T11:20:27.427Z,45.91
2018-04-14T11:23:00.998Z,45.12
2018-04-14T11:25:34.529Z,43.30
2018-04-14T11:28:08.272Z,44.04
2018-04-14T11:30:41.883Z,43.03
2018-04-14T11:33:20.468Z,45.41
2018-04-14T11:35:53.963Z,46.22
2018-04-14T11:38:27.512Z,46.37
2018-04-14T11:41:01.150Z,46.09
2018-04-14T11:43:34.748Z,48.27
2018-04-14T11:46:08.384Z,45.87
2018-04-14T11:48:41.924Z,49.75
2018-04-14T11:51:15.564Z,50.86
2018-04-14T11:53:49.261Z,51.44
2018-04-14T11:56:22.843Z,50.80
2018-04-14T11:58:56.508Z,53.47
2018-04-14T12:01:30.111Z,53.11
2018-04-14T12:04:03.960Z,51.95
2018-04-14T12:06:37.580Z,51.38
2018-04-14T12:09:11.264Z,52.70
2018-04-14T12:11:44.947Z,51.98
2018-04-14T12:14:18.620Z,51.93
2018-04-14T12:16:52.208Z,52.62
2018-04-14T12:19:25.988Z,51.85
2018-04-14T12:21:59.620Z,52.21
2018-04-14T12:24:33.353Z,52.00
2018-04-14T12:27:07.102Z,52.06
2018-04-14T12:29:40.681Z,51.13
2018-04-14T12:32:14.452Z,51.38
2018-04-14T12:34:48.835Z,51.96
2018-04-14T12:37:22.489Z,51.64
2018-04-14T12:39:56.279Z,52.62
2018-04-14T12:42:30.036Z,52.05
2018-04-14T12:45:03.914Z,51.22
2018-04-14T12:47:37.564Z,51.93
2018-04-14T12:50:11.140Z,52.59
2018-04-14T12:52:44.942Z,52.34
2018-04-14T12:55:18.443Z,51.87
2018-04-14T12:57:52.199Z,50.80
2018-04-14T13:00:25.999Z,48.69
2018-04-14T13:02:59.663Z,48.34
2018-04-14T13:05:33.440Z,46.00
2018-04-14T13:08:07.075Z,46.18
2018-04-14T13:10:40.660Z,47.07
2018-04-14T13:13:14.216Z,47.72
2018-04-14T13:15:47.813Z,47.49
2018-04-14T13:18:21.402Z,46.24
2018-04-14T13:20:55.056Z,45.82
2018-04-14T13:23:28.809Z,46.89
2018-04-14T13:26:02.514Z,45.77
2018-04-14T13:28:36.061Z,46.81
2018-04-14T13:31:09.680Z,46.44
2018-04-14T13:33:43.395Z,45.25
2018-04-14T13:36:17.061Z,44.80
2018-04-14T13:38:50.724Z,44.86
2018-04-14T13:41:24.330Z,44.96
2018-04-14T13:43:58.072Z,45.52
2018-04-14T13:46:31.830Z,45.97
2018-04-14T13:49:05.409Z,46.90
2018-04-14T13:51:39.059Z,44.56
2018-04-14T13:54:12.772Z,47.26
2018-04-14T13:56:46.424Z,47.62
2018-04-14T13:59:20.071Z,47.17
2018-04-14T14:01:53.825Z,47.48
2018-04-14T14:04:27.397Z,47.40
2018-04-14T14:07:00.977Z,46.31
2018-04-14T14:09:34.723Z,46.94
2018-04-14T14:12:08.390Z,47.24
2018-04-14T14:14:42.125Z,46.80
2018-04-14T14:17:15.888Z,46.13
2018-04-14T14:19:49.463Z,45.82
2018-04-14T14:22:23.216Z,44.45
2018-04-14T14:24:56.835Z,44.50
2018-04-14T14:27:30.596Z,43.29
2018-04-14T14:30:04.194Z,41.60
2018-04-14T14:32:37.823Z,40.74
2018-04-14T14:35:11.357Z,39.24
2018-04-14T14:37:44.885Z,38.00
2018-04-14T14:40:18.717Z,38.52
2018-04-14T14:42:52.293Z,38.42
2018-04-14T14:45:25.829Z,39.08
2018-04-14T14:47:59.603Z,40.16
2018-04-14T14:50:33.319Z,40.29
2018-04-14T14:53:06.981Z,40.33
2018-04-14T14:55:40.655Z,40.55
2018-04-14T14:58:14.305Z,40.73
2018-04-14T15:00:48.016Z,41.51
2018-04-14T15:03:21.693Z,43.29
2018-04-14T15:05:55.348Z,45.22
2018-04-14T15:08:28.923Z,47.07
2018-04-14T15:11:02.579Z,47.26
2018-04-14T15:13:36.197Z,47.40
2018-04-14T15:16:09.852Z,46.77
2018-04-14T15:18:43.519Z,46.88
2018-04-14T15:21:17.083Z,46.88
2018-04-14T15:23:50.650Z,46.94
2018-04-14T15:26:24.270Z,47.65
2018-04-14T15:28:57.836Z,48.55
2018-04-14T15:31:31.478Z,47.42
2018-04-14T15:34:05.238Z,47.15
2018-04-14T15:36:38.900Z,47.04
2018-04-14T15:39:12.836Z,46.17
2018-04-14T15:41:46.340Z,45.34
2018-04-14T15:44:19.864Z,46.25
2018-04-14T15:46:53.453Z,45.49
2018-04-14T15:49:27.025Z,44.68
2018-04-14T15:52:00.572Z,45.17
2018-04-14T15:54:34.163Z,44.68
2018-04-14T15:57:07.803Z,45.44
2018-04-14T15:59:41.416Z,46.45
2018-04-14T16:02:15.176Z,47.92
2018-04-14T16:04:48.942Z,48.51
2018-04-14T16:07:22.563Z,48.95
2018-04-14T16:09:56.086Z,48.84
2018-04-14T16:12:29.783Z,49.43
2018-04-14T16:15:03.544Z,48.94
2018-04-14T16:17:39.653Z,49.67
2018-04-14T16:20:14.308Z,50.39
2018-04-14T16:22:48.105Z,50.33
2018-04-14T16:25:21.782Z,50.86
2018-04-14T16:27:55.441Z,50.68
2018-04-14T16:30:29.091Z,51.26
2018-04-14T16:33:02.722Z,51.42
2018-04-14T16:35:36.419Z,50.89
2018-04-14T16:38:10.110Z,50.54
2018-04-14T16:40:43.689Z,50.71
2018-04-14T16:43:17.380Z,51.46
2018-04-14T16:45:51.096Z,50.93
2018-04-14T16:48:24.842Z,50.54
2018-04-14T16:50:58.452Z,50.88
2018-04-14T16:53:32.095Z,51.44
2018-04-14T16:56:05.836Z,51.42
2018-04-14T16:58:39.490Z,51.77
2018-04-14T17:01:13.266Z,51.73
2018-04-14T17:03:46.817Z,52.38
2018-04-14T17:06:20.392Z,52.66
2018-04-14T17:08:54.090Z,53.25
2018-04-14T17:11:27.782Z,53.35
2018-04-14T17:14:01.330Z,53.72
2018-04-14T17:16:35.057Z,54.21
2018-04-14T17:19:08.538Z,54.49
2018-04-14T17:21:42.340Z,54.74
2018-04-14T17:24:16.040Z,54.57
2018-04-14T17:26:49.611Z,54.86
2018-04-14T17:29:23.166Z,55.22
2018-04-14T17:31:56.916Z,55.51
2018-04-14T17:34:30.485Z,54.56
2018-04-14T17:37:04.168Z,55.19
2018-04-14T17:39:37.817Z,55.55
2018-04-14T17:42:11.397Z,56.30
2018-04-14T17:44:45.200Z,57.48
2018-04-14T17:47:18.878Z,57.95
2018-04-14T17:49:52.533Z,56.42
2018-04-14T17:52:26.041Z,57.57
2018-04-14T17:54:59.715Z,57.34
2018-04-14T17:57:33.257Z,56.74
2018-04-14T18:00:06.864Z,56.09
2018-04-14T18:02:40.468Z,57.21
2018-04-14T18:05:14.020Z,57.48
2018-04-14T18:07:47.668Z,58.44
2018-04-14T18:10:21.198Z,58.97
2018-04-14T18:12:54.900Z,58.81
2018-04-14T18:15:28.580Z,59.21
2018-04-14T18:18:02.158Z,58.99
2018-04-14T18:20:35.925Z,59.35
2018-04-14T18:23:09.472Z,59.28
2018-04-14T18:25:43.044Z,58.50
2018-04-14T18:28:16.640Z,58.08
2018-04-14T18:30:50.310Z,58.75
2018-04-14T18:33:24.076Z,58.21
2018-04-14T18:35:57.701Z,58.35
2018-04-14T18:38:31.332Z,58.36
2018-04-14T18:41:04.878Z,59.48
2018-04-14T18:43:38.712Z,59.63
2018-04-14T18:46:12.382Z,58.70
2018-04-14T18:48:45.965Z,58.91
2018-04-14T18:51:19.848Z,59.03
2018-04-14T18:53:53.305Z,59.18
2018-04-14T18:56:26.948Z,59.89
2018-04-14T18:59:00.616Z,60.07
2018-04-14T19:01:34.219Z,60.28
2018-04-14T19:04:07.985Z,59.54
2018-04-14T19:06:41.679Z,59.14
2018-04-14T19:09:15.386Z,58.74
2018-04-14T19:11:48.957Z,58.07
2018-04-14T19:14:22.692Z,57.94
2018-04-14T19:16:56.259Z,57.60
2018-04-14T19:19:29.914Z,57.49
2018-04-14T19:22:03.456Z,57.05
2018-04-14T19:24:37.056Z,57.43
2018-04-14T19:27:10.658Z,57.52
2018-04-14T19:29:44.420Z,57.48
2018-04-14T19:32:18.055Z,57.78
2018-04-14T19:34:51.755Z,56.89
2018-04-14T19:37:25.332Z,56.67
2018-04-14T19:39:59.075Z,56.87
2018-04-14T19:42:32.764Z,57.08
2018-04-14T19:45:06.375Z,57.62
2018-04-14T19:47:40.243Z,57.92
2018-04-14T19:50:13.766Z,57.60
2018-04-14T19:52:47.437Z,58.49
2018-04-14T19:55:21.117Z,57.59
2018-04-14T19:57:54.694Z,58.04
2018-04-14T20:00:28.496Z,59.07
2018-04-14T20:03:02.042Z,58.52
2018-04-14T20:05:35.753Z,58.07
2018-04-14T20:08:09.589Z,58.88
2018-04-14T20:10:43.207Z,58.19
2018-04-14T20:13:16.790Z,58.51
2018-04-14T20:15:50.427Z,58.64
2018-04-14T20:18:23.980Z,59.39
2018-04-14T20:20:57.508Z,59.42
2018-04-14T20:23:31.072Z,59.56
2018-04-14T20:26:04.729Z,59.72
2018-04-14T20:28:38.559Z,59.54
2018-04-14T20:31:12.431Z,59.85
2018-04-14T20:33:45.996Z,59.73
2018-04-14T20:36:19.685Z,60.42
2018-04-14T20:38:53.397Z,59.93
2018-04-14T20:41:26.970Z,60.19
2018-04-14T20:44:00.689Z,60.03
2018-04-14T20:46:34.319Z,59.98
2018-04-14T20:49:07.947Z,59.99
2018-04-14T20:51:41.538Z,60.41
2018-04-14T20:54:15.076Z,60.25
2018-04-14T20:56:48.608Z,60.58
2018-04-14T20:59:22.179Z,61.04
2018-04-14T21:01:55.970Z,61.06
2018-04-14T21:04:29.572Z,61.67
2018-04-14T21:07:03.453Z,61.07
2018-04-14T21:09:37.274Z,61.95
2018-04-14T21:12:10.849Z,61.45
2018-04-14T21:14:44.512Z,61.97
2018-04-14T21:17:18.061Z,62.02
2018-04-14T21:19:51.615Z,61.72
2018-04-14T21:22:25.212Z,61.38
2018-04-14T21:24:58.766Z,62.12
2018-04-14T21:27:32.422Z,62.33
2018-04-14T21:30:06.154Z,61.98
2018-04-14T21:32:39.701Z,62.77
2018-04-14T21:35:13.199Z,62.56
2018-04-14T21:37:46.960Z,62.24
2018-04-14T21:40:20.492Z,62.33
2018-04-14T21:42:54.054Z,62.52
2018-04-14T21:45:27.661Z,62.14
2018-04-14T21:48:01.355Z,62.83
2018-04-14T21:50:34.972Z,62.62
2018-04-14T21:53:08.501Z,62.76
2018-04-14T21:55:42.160Z,62.33
2018-04-14T21:58:15.885Z,62.10
2018-04-14T22:00:49.576Z,62.33
2018-04-14T22:03:23.054Z,62.01
2018-04-14T22:05:56.616Z,61.92
2018-04-14T22:08:30.278Z,61.83
2018-04-14T22:11:03.984Z,61.95
2018-04-14T22:13:37.632Z,61.96
2018-04-14T22:16:11.411Z,62.07
2018-04-14T22:18:45.253Z,62.14
2018-04-14T22:21:19.012Z,62.51
2018-04-14T22:23:52.544Z,62.34
2018-04-14T22:26:26.216Z,62.40
2018-04-14T22:28:59.782Z,62.49
2018-04-14T22:31:33.480Z,62.70
2018-04-14T22:34:07.022Z,62.63
2018-04-14T22:36:40.568Z,62.92
2018-04-14T22:39:14.177Z,62.99
2018-04-14T22:41:47.962Z,63.06
2018-04-14T22:44:21.561Z,63.24
2018-04-14T22:46:55.115Z,63.13
2018-04-14T22:49:28.835Z,63.16
2018-04-14T22:52:02.351Z,63.40
2018-04-14T22:54:36.071Z,63.52
2018-04-14T22:57:09.619Z,64.06
2018-04-14T22:59:43.212Z,63.67
2018-04-14T23:02:16.822Z,63.75
2018-04-14T23:04:50.657Z,63.75
2018-04-14T23:07:24.359Z,63.80
2018-04-14T23:09:58.104Z,63.84
2018-04-14T23:12:31.712Z,64.22
2018-04-14T23:15:05.270Z,64.06
2018-04-14T23:17:38.967Z,63.79
2018-04-14T23:20:12.636Z,65.02
2018-04-14T23:22:46.263Z,66.05
2018-04-14T23:25:20.648Z,67.66
2018-04-14T23:27:54.306Z,68.17
2018-04-14T23:30:27.934Z,68.97
2018-04-14T23:33:01.713Z,70.80
2018-04-14T23:35:35.496Z,73.27
2018-04-14T23:38:09.157Z,75.23
2018-04-14T23:40:42.856Z,75.89
2018-04-14T23:43:16.462Z,76.95
2018-04-14T23:45:50.018Z,78.24
2018-04-14T23:48:23.828Z,78.52
2018-04-14T23:50:57.433Z,78.81
2018-04-14T23:53:30.978Z,78.76
2018-04-14T23:56:04.748Z,79.74
2018-04-14T23:58:38.476Z,80.68
